createdAt,value
2022-08-25T00:00:21.409Z,84.52
2022-08-25T00:03:05.042Z,85.02
2022-08-25T00:05:33.599Z,85.77
2022-08-25T00:08:04.011Z,86.05
2022-08-25T00:10:35.345Z,85.31
2022-08-25T00:13:05.074Z,85.47
2022-08-25T00:15:33.210Z,85.61
2022-08-25T00:18:01.919Z,86.10
2022-08-25T00:20:30.049Z,87.74
2022-08-25T00:22:58.598Z,87.30
2022-08-25T00:25:27.140Z,87.05
2022-08-25T00:27:57.471Z,86.84
2022-08-25T00:30:25.641Z,86.51
2022-08-25T00:32:57.326Z,86.07
2022-08-25T00:35:26.755Z,85.58
2022-08-25T00:37:55.174Z,85.95
2022-08-25T00:40:26.294Z,86.22
2022-08-25T00:42:56.223Z,86.26
2022-08-25T00:45:25.022Z,87.35
2022-08-25T00:47:53.032Z,87.20
2022-08-25T00:50:22.897Z,88.61
2022-08-25T00:52:59.096Z,87.21
2022-08-25T00:55:31.443Z,86.73
2022-08-25T00:58:14.744Z,86.94
2022-08-25T01:00:47.436Z,87.14
2022-08-25T01:03:19.338Z,88.08
2022-08-25T01:05:48.081Z,87.41
2022-08-25T01:08:21.467Z,87.60
2022-08-25T01:10:51.252Z,90.37
2022-08-25T01:13:21.526Z,88.28
2022-08-25T01:15:53.657Z,87.72
2022-08-25T01:18:22.340Z,87.48
2022-08-25T01:20:52.916Z,87.72
2022-08-25T01:23:22.191Z,88.06
2022-08-25T01:26:07.878Z,88.20
2022-08-25T01:28:37.452Z,88.42
2022-08-25T01:31:05.469Z,87.67
2022-08-25T01:33:52.547Z,87.69
2022-08-25T01:36:22.104Z,87.81
2022-08-25T01:38:50.654Z,88.01
2022-08-25T01:41:31.855Z,88.02
2022-08-25T01:44:00.572Z,88.10
2022-08-25T01:46:28.780Z,88.80
2022-08-25T01:48:56.736Z,89.27
2022-08-25T01:51:28.225Z,89.82
2022-08-25T01:53:56.205Z,90.08
2022-08-25T01:56:24.241Z,90.36
2022-08-25T01:58:53.574Z,90.60
2022-08-25T02:01:24.566Z,92.39
2022-08-25T02:03:55.419Z,90.72
2022-08-25T02:06:30.018Z,91.19
2022-08-25T02:09:01.564Z,90.75
2022-08-25T02:11:29.906Z,90.88
2022-08-25T02:13:59.243Z,91.58
2022-08-25T02:16:31.303Z,90.84
2022-08-25T02:19:00.181Z,90.45
2022-08-25T02:21:28.642Z,88.86
2022-08-25T02:23:57.202Z,88.60
2022-08-25T02:26:25.560Z,89.26
2022-08-25T02:28:53.609Z,89.89
2022-08-25T02:31:23.677Z,89.12
2022-08-25T02:33:53.109Z,88.47
2022-08-25T02:36:21.325Z,88.52
2022-08-25T02:38:49.699Z,89.19
2022-08-25T02:41:20.998Z,89.43
2022-08-25T02:43:50.078Z,89.71
2022-08-25T02:46:20.335Z,90.12
2022-08-25T02:48:48.781Z,90.57
2022-08-25T02:51:17.028Z,91.12
2022-08-25T02:53:47.154Z,91.65
2022-08-25T02:56:16.565Z,91.80
2022-08-25T02:58:46.077Z,92.08
2022-08-25T03:01:15.781Z,92.54
2022-08-25T03:03:46.111Z,92.92
2022-08-25T03:06:18.994Z,93.91
2022-08-25T03:08:47.239Z,93.56
2022-08-25T03:11:15.206Z,93.84
2022-08-25T03:13:43.200Z,94.45
2022-08-25T03:16:12.449Z,92.50
2022-08-25T03:18:42.540Z,91.88
2022-08-25T03:21:12.468Z,91.87
2022-08-25T03:23:41.963Z,92.54
2022-08-25T03:26:28.617Z,92.09
2022-08-25T03:28:57.248Z,91.89
2022-08-25T03:31:28.703Z,92.09
2022-08-25T03:33:56.733Z,92.21
2022-08-25T03:36:25.681Z,92.71
2022-08-25T03:38:54.019Z,93.11
2022-08-25T03:41:28.055Z,94.26
2022-08-25T03:43:57.500Z,94.60
2022-08-25T03:46:34.466Z,94.86
2022-08-25T03:49:06.706Z,94.73
2022-08-25T03:51:43.061Z,94.78
2022-08-25T03:54:11.814Z,94.65
2022-08-25T03:56:40.485Z,94.05
2022-08-25T03:59:10.068Z,94.14
2022-08-25T04:01:40.535Z,93.57
2022-08-25T04:04:10.569Z,94.29
2022-08-25T04:06:40.060Z,94.01
2022-08-25T04:09:08.479Z,93.76
2022-08-25T04:11:37.053Z,93.66
2022-08-25T04:14:05.940Z,93.27
2022-08-25T04:16:35.383Z,94.13
2022-08-25T04:19:08.091Z,93.93
2022-08-25T04:21:38.967Z,93.13
2022-08-25T04:24:09.989Z,92.49
2022-08-25T04:26:42.636Z,92.32
2022-08-25T04:29:12.209Z,92.47
2022-08-25T04:31:42.068Z,92.71
2022-08-25T04:34:28.370Z,93.42
2022-08-25T04:37:03.299Z,93.91
2022-08-25T04:39:32.194Z,95.75
2022-08-25T04:42:01.100Z,95.53
2022-08-25T04:44:32.001Z,94.62
2022-08-25T04:47:00.567Z,93.35
2022-08-25T04:49:28.865Z,92.76
2022-08-25T04:51:57.697Z,92.74
2022-08-25T04:54:25.917Z,92.57
2022-08-25T04:56:58.414Z,92.21
2022-08-25T04:59:30.438Z,92.17
2022-08-25T05:02:03.480Z,92.88
2022-08-25T05:04:33.411Z,93.20
2022-08-25T05:07:02.279Z,93.50
2022-08-25T05:09:32.278Z,93.39
2022-08-25T05:12:02.870Z,93.12
2022-08-25T05:14:32.476Z,93.62
2022-08-25T05:17:00.991Z,94.45
2022-08-25T05:19:29.371Z,94.75
2022-08-25T05:21:57.791Z,94.21
2022-08-25T05:24:27.046Z,93.52
2022-08-25T05:26:55.171Z,93.26
2022-08-25T05:29:23.641Z,93.35
2022-08-25T05:31:51.902Z,93.44
2022-08-25T05:34:20.149Z,93.30
2022-08-25T05:36:49.222Z,93.26
2022-08-25T05:39:17.556Z,93.43
2022-08-25T05:41:45.538Z,93.27
2022-08-25T05:44:15.875Z,93.54
2022-08-25T05:46:45.951Z,93.50
2022-08-25T05:49:13.887Z,93.36
2022-08-25T05:51:41.833Z,93.29
2022-08-25T05:54:09.710Z,93.29
2022-08-25T05:56:37.740Z,93.24
2022-08-25T05:59:09.238Z,92.95
2022-08-25T06:01:56.585Z,93.00
2022-08-25T06:04:24.781Z,93.07
2022-08-25T06:06:55.054Z,93.09
2022-08-25T06:09:24.441Z,92.92
2022-08-25T06:11:55.213Z,93.29
2022-08-25T06:14:24.188Z,93.23
2022-08-25T06:16:56.085Z,93.49
2022-08-25T06:19:24.561Z,92.99
2022-08-25T06:21:57.286Z,92.70
2022-08-25T06:24:27.449Z,92.57
2022-08-25T06:26:56.617Z,92.32
2022-08-25T06:29:25.537Z,91.83
2022-08-25T06:31:53.597Z,91.70
2022-08-25T06:34:24.136Z,91.70
2022-08-25T06:36:55.422Z,91.26
2022-08-25T06:39:27.932Z,91.39
2022-08-25T06:41:56.950Z,91.34
2022-08-25T06:44:27.863Z,91.19
2022-08-25T06:46:55.976Z,91.55
2022-08-25T06:49:31.866Z,91.19
2022-08-25T06:52:04.011Z,91.11
2022-08-25T06:54:31.910Z,91.16
2022-08-25T06:56:59.825Z,90.71
2022-08-25T06:59:32.256Z,90.33
2022-08-25T07:02:07.696Z,90.26
2022-08-25T07:04:36.315Z,89.65
2022-08-25T07:07:04.683Z,89.61
2022-08-25T07:09:35.332Z,89.64
2022-08-25T07:12:08.898Z,89.54
2022-08-25T07:14:37.140Z,89.07
2022-08-25T07:17:10.593Z,88.90
2022-08-25T07:19:41.280Z,88.58
2022-08-25T07:22:09.561Z,87.85
2022-08-25T07:24:37.615Z,87.60
2022-08-25T07:27:05.670Z,87.40
2022-08-25T07:29:36.849Z,87.24
2022-08-25T07:32:15.869Z,87.39
2022-08-25T07:35:02.416Z,86.53
2022-08-25T07:37:47.700Z,85.84
2022-08-25T07:40:23.564Z,85.15
2022-08-25T07:42:56.863Z,85.19
2022-08-25T07:45:31.740Z,85.54
2022-08-25T07:48:11.356Z,84.86
2022-08-25T07:50:45.473Z,85.17
2022-08-25T07:53:15.349Z,84.72
2022-08-25T07:55:45.144Z,84.04
2022-08-25T07:58:15.811Z,84.48
2022-08-25T08:00:48.091Z,84.51
2022-08-25T08:03:35.316Z,84.29
2022-08-25T08:06:10.358Z,84.28
2022-08-25T08:08:42.675Z,84.37
2022-08-25T08:11:24.502Z,83.94
2022-08-25T08:14:46.285Z,83.23
2022-08-25T08:17:14.364Z,82.48
2022-08-25T08:19:46.543Z,82.42
2022-08-25T08:22:17.720Z,82.49
2022-08-25T08:24:54.578Z,81.86
2022-08-25T08:27:25.012Z,82.14
2022-08-25T08:29:53.839Z,81.83
2022-08-25T08:32:25.279Z,81.61
2022-08-25T08:34:59.863Z,81.01
2022-08-25T08:37:28.174Z,80.51
2022-08-25T08:39:56.451Z,80.91
2022-08-25T08:42:49.142Z,80.41
2022-08-25T08:45:30.210Z,80.18
2022-08-25T08:48:43.260Z,79.28
2022-08-25T08:51:19.512Z,78.96
2022-08-25T08:54:07.047Z,79.14
2022-08-25T08:56:48.109Z,79.43
2022-08-25T08:59:28.841Z,78.87
2022-08-25T09:02:01.886Z,76.85
2022-08-25T09:04:39.548Z,76.75
2022-08-25T09:07:14.623Z,77.00
2022-08-25T09:09:45.668Z,74.79
2022-08-25T09:12:21.899Z,74.78
2022-08-25T09:15:12.593Z,75.34
2022-08-25T09:17:54.612Z,74.61
2022-08-25T09:20:39.020Z,75.50
2022-08-25T09:23:06.898Z,73.71
2022-08-25T09:26:11.319Z,74.52
2022-08-25T09:28:51.743Z,74.51
2022-08-25T09:31:27.591Z,74.66
2022-08-25T09:34:01.353Z,74.48
2022-08-25T09:36:36.924Z,73.95
2022-08-25T09:39:07.561Z,73.40
2022-08-25T09:41:57.420Z,72.70
2022-08-25T09:44:41.546Z,73.32
2022-08-25T09:47:18.337Z,73.43
2022-08-25T09:49:51.882Z,72.91
2022-08-25T09:52:32.101Z,72.55
2022-08-25T09:55:06.294Z,70.34
2022-08-25T09:57:43.237Z,71.21
2022-08-25T10:00:27.739Z,71.25
2022-08-25T10:03:08.276Z,71.37
2022-08-25T10:05:49.488Z,69.97
2022-08-25T10:08:40.946Z,70.17
2022-08-25T10:11:14.778Z,69.74
2022-08-25T10:13:49.412Z,69.20
2022-08-25T10:16:34.076Z,69.22
2022-08-25T10:19:25.963Z,69.18
2022-08-25T10:22:32.593Z,68.46
2022-08-25T10:25:01.118Z,68.08
2022-08-25T10:27:52.800Z,67.99
2022-08-25T10:30:28.523Z,68.32
2022-08-25T10:33:24.684Z,67.60
2022-08-25T10:36:11.738Z,67.33
2022-08-25T10:38:43.105Z,66.69
2022-08-25T10:41:11.257Z,66.47
2022-08-25T10:43:52.094Z,65.64
2022-08-25T10:46:26.092Z,65.58
2022-08-25T10:49:23.866Z,64.48
2022-08-25T10:52:13.733Z,63.42
2022-08-25T10:55:03.365Z,63.59
2022-08-25T10:57:52.788Z,63.86
2022-08-25T11:00:31.384Z,62.07
2022-08-25T11:03:08.978Z,62.15
2022-08-25T11:05:55.848Z,62.03
2022-08-25T11:08:38.720Z,60.47
2022-08-25T11:11:21.635Z,60.57
2022-08-25T11:13:59.112Z,60.41
2022-08-25T11:17:07.648Z,59.60
2022-08-25T11:19:38.021Z,60.28
2022-08-25T11:22:24.107Z,59.39
2022-08-25T11:25:12.791Z,59.78
2022-08-25T11:27:57.736Z,58.88
2022-08-25T11:30:26.511Z,59.35
2022-08-25T11:32:56.213Z,58.33
2022-08-25T11:35:39.075Z,58.54
2022-08-25T11:38:35.897Z,58.05
2022-08-25T11:41:48.598Z,57.02
2022-08-25T11:44:53.687Z,57.14
2022-08-25T11:48:06.725Z,54.79
2022-08-25T11:50:53.971Z,55.15
2022-08-25T11:53:28.239Z,55.29
2022-08-25T11:56:04.472Z,54.47
2022-08-25T11:58:49.832Z,53.40
2022-08-25T12:01:40.290Z,53.27
2022-08-25T12:04:45.116Z,53.74
2022-08-25T12:07:22.020Z,51.86
2022-08-25T12:09:55.508Z,50.79
2022-08-25T12:12:23.323Z,50.50
2022-08-25T12:14:51.949Z,50.42
2022-08-25T12:17:37.445Z,50.87
2022-08-25T12:20:08.255Z,51.00
2022-08-25T12:22:36.234Z,48.56
2022-08-25T12:25:11.725Z,46.70
2022-08-25T12:28:00.714Z,47.56
2022-08-25T12:30:36.589Z,47.83
2022-08-25T12:33:34.146Z,45.98
2022-08-25T12:36:07.149Z,45.63
2022-08-25T12:38:52.275Z,46.70
2022-08-25T12:41:54.634Z,46.48
2022-08-25T12:44:47.360Z,45.76
2022-08-25T12:47:30.568Z,45.31
2022-08-25T12:50:37.048Z,45.30
2022-08-25T12:53:17.885Z,45.33
2022-08-25T12:55:53.046Z,44.37
2022-08-25T12:58:59.928Z,43.20
2022-08-25T13:02:07.810Z,42.83
2022-08-25T13:05:04.033Z,41.86
2022-08-25T13:07:39.646Z,41.27
2022-08-25T13:10:24.024Z,40.54
2022-08-25T13:13:33.545Z,41.41
2022-08-25T13:16:08.805Z,41.65
2022-08-25T13:18:39.731Z,40.77
2022-08-25T13:21:20.780Z,40.81
2022-08-25T13:23:54.126Z,40.52
2022-08-25T13:26:38.145Z,40.75
2022-08-25T13:29:22.318Z,40.46
2022-08-25T13:31:58.765Z,39.89
2022-08-25T13:34:34.750Z,40.28
2022-08-25T13:37:30.238Z,40.41
2022-08-25T13:40:25.931Z,40.44
2022-08-25T13:43:02.796Z,40.14
2022-08-25T13:45:47.839Z,39.48
2022-08-25T13:48:38.491Z,39.27
2022-08-25T13:51:36.848Z,39.71
2022-08-25T13:54:08.931Z,39.57
2022-08-25T13:56:41.597Z,39.25
2022-08-25T13:59:31.425Z,38.48
2022-08-25T14:02:00.258Z,39.03
2022-08-25T14:04:50.618Z,38.77
2022-08-25T14:07:20.187Z,38.49
2022-08-25T14:09:52.452Z,38.05
2022-08-25T14:13:15.911Z,37.57
2022-08-25T14:15:47.005Z,38.09
2022-08-25T14:18:27.139Z,38.21
2022-08-25T14:21:16.876Z,37.61
2022-08-25T14:23:58.974Z,37.59
2022-08-25T14:26:28.777Z,36.96
2022-08-25T14:28:56.820Z,36.77
2022-08-25T14:31:30.143Z,36.52
2022-08-25T14:33:59.622Z,36.63
2022-08-25T14:36:30.397Z,36.40
2022-08-25T14:39:00.251Z,36.50
2022-08-25T14:41:30.773Z,36.56
2022-08-25T14:43:59.042Z,35.97
2022-08-25T14:46:30.038Z,36.48
2022-08-25T14:49:11.940Z,35.53
2022-08-25T14:51:42.451Z,35.98
2022-08-25T14:54:15.131Z,36.46
2022-08-25T14:56:43.937Z,35.55
2022-08-25T14:59:12.209Z,36.43
2022-08-25T15:01:40.790Z,36.36
2022-08-25T15:04:16.008Z,36.35
2022-08-25T15:06:46.868Z,35.72
2022-08-25T15:09:16.761Z,35.99
2022-08-25T15:11:50.618Z,35.69
2022-08-25T15:14:28.814Z,36.38
2022-08-25T15:17:14.858Z,36.80
2022-08-25T15:19:47.718Z,36.28
2022-08-25T15:22:17.016Z,35.98
2022-08-25T15:24:45.257Z,36.72
2022-08-25T15:27:19.675Z,36.67
2022-08-25T15:29:48.266Z,36.69
2022-08-25T15:32:18.663Z,36.35
2022-08-25T15:34:46.835Z,36.15
2022-08-25T15:37:16.644Z,36.29
2022-08-25T15:39:46.771Z,36.63
2022-08-25T15:42:16.688Z,37.01
2022-08-25T15:44:52.880Z,37.22
2022-08-25T15:47:22.690Z,36.95
2022-08-25T15:49:51.608Z,37.20
2022-08-25T15:52:19.512Z,37.10
2022-08-25T15:54:47.561Z,37.08
2022-08-25T15:57:24.341Z,37.77
2022-08-25T15:59:53.204Z,37.95
2022-08-25T16:02:22.085Z,38.04
2022-08-25T16:04:51.595Z,38.38
2022-08-25T16:07:20.336Z,38.33
2022-08-25T16:09:50.664Z,38.45
2022-08-25T16:12:19.183Z,38.81
2022-08-25T16:14:47.566Z,38.61
2022-08-25T16:17:16.587Z,39.00
2022-08-25T16:19:44.898Z,38.88
2022-08-25T16:22:13.104Z,38.83
2022-08-25T16:24:44.504Z,39.02
2022-08-25T16:27:14.284Z,39.10
2022-08-25T16:29:44.336Z,39.84
2022-08-25T16:32:14.135Z,39.73
2022-08-25T16:34:44.219Z,39.74
2022-08-25T16:37:14.662Z,40.12
2022-08-25T16:39:46.073Z,40.45
2022-08-25T16:42:14.595Z,41.17
2022-08-25T16:45:13.921Z,41.45
2022-08-25T16:47:42.702Z,41.66
2022-08-25T16:50:11.471Z,41.74
2022-08-25T16:52:59.338Z,42.09
2022-08-25T16:55:38.646Z,42.59
2022-08-25T16:58:08.738Z,43.06
2022-08-25T17:00:41.585Z,43.35
2022-08-25T17:03:13.134Z,43.76
2022-08-25T17:05:42.866Z,44.24
2022-08-25T17:08:30.595Z,44.74
2022-08-25T17:11:14.820Z,45.60
2022-08-25T17:13:47.781Z,46.71
2022-08-25T17:16:19.386Z,46.65
2022-08-25T17:18:48.744Z,46.85
2022-08-25T17:21:23.817Z,47.58
2022-08-25T17:23:53.312Z,48.23
2022-08-25T17:26:27.567Z,48.64
2022-08-25T17:28:59.376Z,49.36
2022-08-25T17:31:30.011Z,50.14
2022-08-25T17:33:59.586Z,50.68
2022-08-25T17:36:28.631Z,51.01
2022-08-25T17:38:59.737Z,52.36
2022-08-25T17:41:27.692Z,52.77
2022-08-25T17:43:55.710Z,53.19
2022-08-25T17:46:24.341Z,54.05
2022-08-25T17:48:53.189Z,54.42
2022-08-25T17:51:23.133Z,55.26
2022-08-25T17:53:53.029Z,55.79
2022-08-25T17:56:23.543Z,56.07
2022-08-25T17:58:56.104Z,56.44
2022-08-25T18:01:27.629Z,57.42
2022-08-25T18:03:57.529Z,58.02
2022-08-25T18:06:29.504Z,58.55
2022-08-25T18:09:01.549Z,58.76
2022-08-25T18:11:31.547Z,59.00
2022-08-25T18:14:02.503Z,59.03
2022-08-25T18:16:32.524Z,59.49
2022-08-25T18:19:02.716Z,59.41
2022-08-25T18:21:35.106Z,59.88
2022-08-25T18:24:03.364Z,60.93
2022-08-25T18:26:32.297Z,60.84
2022-08-25T18:29:00.543Z,61.66
2022-08-25T18:31:31.840Z,61.61
2022-08-25T18:34:00.244Z,62.37
2022-08-25T18:36:28.806Z,62.34
2022-08-25T18:39:15.494Z,62.91
2022-08-25T18:41:45.086Z,62.71
2022-08-25T18:44:16.443Z,63.09
2022-08-25T18:46:45.532Z,62.90
2022-08-25T18:49:17.668Z,63.43
2022-08-25T18:51:47.389Z,63.89
2022-08-25T18:54:23.321Z,63.89
2022-08-25T18:56:54.857Z,64.50
2022-08-25T18:59:23.699Z,64.80
2022-08-25T19:01:54.236Z,64.60
2022-08-25T19:04:31.336Z,65.16
2022-08-25T19:07:02.931Z,65.64
2022-08-25T19:09:32.075Z,66.15
2022-08-25T19:12:25.459Z,66.15
2022-08-25T19:14:53.573Z,65.85
2022-08-25T19:17:24.666Z,65.83
2022-08-25T19:19:53.007Z,65.59
2022-08-25T19:22:40.314Z,65.32
2022-08-25T19:25:10.266Z,65.93
2022-08-25T19:27:38.935Z,66.25
2022-08-25T19:30:10.183Z,66.18
2022-08-25T19:32:41.877Z,66.28
2022-08-25T19:35:32.469Z,66.58
2022-08-25T19:38:03.226Z,66.23
2022-08-25T19:40:35.927Z,66.20
2022-08-25T19:43:07.530Z,66.23
2022-08-25T19:45:36.778Z,66.18
2022-08-25T19:48:05.924Z,66.05
2022-08-25T19:50:34.905Z,66.04
2022-08-25T19:53:03.911Z,66.17
2022-08-25T19:55:32.316Z,66.65
2022-08-25T19:58:00.674Z,66.52
2022-08-25T20:00:32.861Z,66.88
2022-08-25T20:03:02.360Z,66.53
2022-08-25T20:05:31.459Z,66.67
2022-08-25T20:07:59.904Z,67.00
2022-08-25T20:10:32.740Z,67.27
2022-08-25T20:13:09.368Z,67.45
2022-08-25T20:15:39.051Z,67.71
2022-08-25T20:18:08.257Z,67.93
2022-08-25T20:20:36.840Z,67.85
2022-08-25T20:23:24.221Z,68.49
2022-08-25T20:25:53.194Z,69.45
2022-08-25T20:28:21.385Z,70.20
2022-08-25T20:30:49.549Z,70.62
2022-08-25T20:33:22.506Z,70.86
2022-08-25T20:35:53.080Z,70.71
2022-08-25T20:38:21.569Z,71.10
2022-08-25T20:40:49.590Z,70.73
2022-08-25T20:43:18.152Z,70.66
2022-08-25T20:45:49.280Z,70.74
2022-08-25T20:48:17.976Z,70.57
2022-08-25T20:50:46.113Z,70.48
2022-08-25T20:53:25.795Z,70.26
2022-08-25T20:55:53.895Z,70.17
2022-08-25T20:58:21.953Z,70.07
2022-08-25T21:00:51.644Z,69.91
2022-08-25T21:03:20.813Z,69.66
2022-08-25T21:05:48.699Z,69.53
2022-08-25T21:08:22.151Z,69.48
2022-08-25T21:10:51.988Z,69.27
2022-08-25T21:13:19.917Z,69.07
2022-08-25T21:15:50.715Z,69.01
2022-08-25T21:18:18.773Z,69.15
2022-08-25T21:20:47.330Z,69.12
2022-08-25T21:23:15.340Z,69.07
2022-08-25T21:25:43.691Z,68.92
2022-08-25T21:28:11.699Z,68.84
2022-08-25T21:30:44.813Z,68.65
2022-08-25T21:33:15.614Z,68.43
2022-08-25T21:35:44.066Z,68.37
2022-08-25T21:38:11.937Z,68.39
2022-08-25T21:41:39.995Z,68.27
2022-08-25T21:45:35.801Z,68.17
2022-08-25T21:49:24.842Z,68.12
2022-08-25T21:53:12.809Z,68.31
2022-08-25T21:57:04.207Z,68.29
2022-08-25T22:00:52.562Z,68.17
2022-08-25T22:03:21.329Z,68.34
2022-08-25T22:05:49.402Z,68.10
2022-08-25T22:08:17.817Z,68.09
2022-08-25T22:10:47.626Z,67.88
2022-08-25T22:13:15.537Z,68.00
2022-08-25T22:15:46.314Z,67.92
2022-08-25T22:18:21.246Z,67.87
2022-08-25T22:20:50.427Z,67.77
2022-08-25T22:23:20.135Z,67.87
2022-08-25T22:25:48.752Z,67.96
2022-08-25T22:28:16.800Z,67.97
2022-08-25T22:30:44.833Z,67.85
2022-08-25T22:33:13.492Z,67.93
2022-08-25T22:35:41.674Z,67.88
2022-08-25T22:38:12.475Z,68.01
2022-08-25T22:40:41.312Z,67.92
2022-08-25T22:43:10.912Z,67.96
2022-08-25T22:45:39.318Z,68.01
2022-08-25T22:48:07.364Z,68.28
2022-08-25T22:50:36.680Z,68.30
2022-08-25T22:53:04.695Z,68.25
2022-08-25T22:55:32.883Z,68.28
2022-08-25T22:58:01.076Z,68.25
2022-08-25T23:00:28.984Z,68.23
2022-08-25T23:02:57.066Z,68.24
2022-08-25T23:05:24.984Z,68.18
2022-08-25T23:07:52.931Z,68.36
2022-08-25T23:10:22.839Z,68.33
2022-08-25T23:12:51.035Z,68.60
2022-08-25T23:15:19.490Z,68.47
2022-08-25T23:17:47.519Z,68.48
2022-08-25T23:20:35.207Z,68.51
2022-08-25T23:23:03.283Z,69.27
2022-08-25T23:25:31.435Z,71.09
2022-08-25T23:27:59.324Z,70.33
2022-08-25T23:30:27.323Z,71.16
2022-08-25T23:32:56.533Z,70.79
2022-08-25T23:35:24.481Z,70.48
2022-08-25T23:37:52.352Z,70.33
2022-08-25T23:40:21.743Z,69.45
2022-08-25T23:42:50.494Z,69.44
2022-08-25T23:45:18.566Z,69.68
2022-08-25T23:47:46.562Z,69.68
2022-08-25T23:50:17.911Z,69.81
2022-08-25T23:52:46.330Z,69.57
2022-08-25T23:55:15.043Z,68.91
2022-08-25T23:57:43.589Z,68.81
